Time;durP1;ratioP1;P1;durP2;ratioP2;P2;SDS_P1;SDS_P2;PMS_P1;PMS_P2;Temp;Humidity;BMP_temperature;BMP_pressure;BME280_temperature;BME280_humidity;BME280_pressure;Samples;Min_cycle;Max_cycle;Signal;HPM_P1;HPM_P2
2022/04/12 00:00:19;;;;;;;8.75;5.63;;;13.10;57.50;;;;;;5014095;28;20488;-77
2022/04/12 00:02:45;;;;;;;9.02;5.60;;;13.00;57.00;;;;;;5014143;28;20108;-77
2022/04/12 00:05:11;;;;;;;9.30;5.40;;;13.00;57.10;;;;;;5014436;28;20358;-77
2022/04/12 00:07:41;;;;;;;8.38;5.80;;;13.00;57.30;;;;;;5014323;28;20025;-77
2022/04/12 00:10:08;;;;;;;9.55;5.82;;;12.90;57.20;;;;;;5013830;28;20508;-77
2022/04/12 00:12:35;;;;;;;8.10;5.68;;;12.90;57.30;;;;;;5013934;28;20132;-77
2022/04/12 00:15:05;;;;;;;8.95;6.00;;;13.00;57.40;;;;;;5014079;28;20022;-77
2022/04/12 00:20:15;;;;;;;8.38;5.50;;;12.90;57.40;;;;;;5014282;28;20072;-77
2022/04/12 00:22:41;;;;;;;8.15;5.22;;;12.90;57.40;;;;;;5013801;28;20083;-77
2022/04/12 00:25:09;;;;;;;7.70;5.32;;;13.00;57.60;;;;;;5014206;28;20053;-77
2022/04/12 00:27:40;;;;;;;7.75;4.82;;;13.00;57.60;;;;;;5013732;28;20057;-77
2022/04/12 00:30:08;;;;;;;8.30;5.40;;;13.00;57.70;;;;;;5014101;28;20408;-77
2022/04/12 00:32:35;;;;;;;8.57;5.15;;;13.10;57.50;;;;;;5013962;28;20030;-77
2022/04/12 00:35:01;;;;;;;6.68;4.97;;;13.10;57.80;;;;;;5013756;28;20079;-77
2022/04/12 00:37:27;;;;;;;8.40;5.53;;;13.10;57.50;;;;;;5013600;28;20030;-77
2022/04/12 00:39:53;;;;;;;7.43;4.95;;;13.00;57.40;;;;;;5013912;28;20033;-77
2022/04/12 00:42:19;;;;;;;7.97;5.35;;;13.00;57.70;;;;;;5013420;28;20038;-77
2022/04/12 00:44:45;;;;;;;9.70;5.82;;;12.90;58.30;;;;;;5013809;28;20354;-77
2022/04/12 00:47:11;;;;;;;8.02;4.97;;;12.90;57.60;;;;;;5013765;28;20358;-77
2022/04/12 00:49:36;;;;;;;6.57;4.50;;;12.90;57.80;;;;;;5013729;28;20018;-77
2022/04/12 00:52:04;;;;;;;8.00;5.35;;;12.90;57.90;;;;;;5013536;28;20025;-78
2022/04/12 00:54:31;;;;;;;9.35;5.20;;;12.90;58.00;;;;;;5013786;28;20026;-77
2022/04/12 00:56:57;;;;;;;8.18;5.38;;;12.80;58.10;;;;;;5013156;28;20048;-77
2022/04/12 00:59:23;;;;;;;8.32;5.05;;;12.80;58.00;;;;;;5013638;28;20022;-77
2022/04/12 01:01:49;;;;;;;7.47;5.53;;;12.80;58.10;;;;;;5013711;28;20022;-77
2022/04/12 01:04:15;;;;;;;8.15;5.25;;;12.80;58.10;;;;;;5013327;28;20104;-77
2022/04/12 01:06:41;;;;;;;7.00;5.03;;;12.70;58.30;;;;;;5013677;28;20037;-77
2022/04/12 01:09:09;;;;;;;8.27;4.93;;;12.70;58.10;;;;;;5013407;28;20101;-77
2022/04/12 01:11:36;;;;;;;8.80;5.13;;;12.60;58.30;;;;;;5013333;28;20042;-77
2022/04/12 01:14:02;;;;;;;6.97;4.85;;;12.60;58.60;;;;;;5015538;28;20045;-77
2022/04/12 01:16:28;;;;;;;7.25;4.82;;;12.60;58.90;;;;;;5017529;28;20029;-77
2022/04/12 01:18:54;;;;;;;9.95;5.30;;;12.60;59.00;;;;;;5016921;28;20029;-77
2022/04/12 01:21:20;;;;;;;7.28;4.90;;;12.50;58.70;;;;;;5017215;28;20022;-76
2022/04/12 01:23:57;;;;;;;7.65;4.57;;;12.60;58.70;;;;;;5016938;28;20038;-76
2022/04/12 01:26:23;;;;;;;8.70;4.63;;;12.60;58.70;;;;;;5017317;28;20025;-75
2022/04/12 01:28:49;;;;;;;10.23;5.18;;;12.60;58.80;;;;;;5016859;28;20034;-75
2022/04/12 01:31:14;;;;;;;7.95;5.00;;;12.60;59.30;;;;;;5017100;28;20026;-76
2022/04/12 01:33:40;;;;;;;6.85;4.68;;;12.50;58.70;;;;;;5017226;28;20018;-75
2022/04/12 01:36:05;;;;;;;10.43;4.97;;;12.50;58.70;;;;;;5016822;28;20030;-75
2022/04/12 01:38:31;;;;;;;9.07;4.68;;;12.50;59.10;;;;;;5016778;28;20018;-75
2022/04/12 01:40:57;;;;;;;7.13;4.97;;;12.50;59.20;;;;;;5017061;28;20026;-78
2022/04/12 01:43:22;;;;;;;7.60;5.07;;;12.50;59.40;;;;;;5016774;28;20117;-77
2022/04/12 01:45:48;;;;;;;11.35;5.05;;;12.50;59.10;;;;;;5016669;28;20080;-77
2022/04/12 01:48:14;;;;;;;5.68;4.45;;;12.40;58.90;;;;;;5016762;28;20244;-77
2022/04/12 01:50:39;;;;;;;8.13;5.25;;;12.40;59.20;;;;;;5016300;28;20086;-77
2022/04/12 01:53:05;;;;;;;6.32;4.55;;;12.40;59.30;;;;;;5016676;28;20108;-77
2022/04/12 01:55:31;;;;;;;6.32;4.75;;;12.40;59.20;;;;;;5016708;28;20030;-77
2022/04/12 01:57:57;;;;;;;6.55;4.60;;;12.50;59.20;;;;;;5016700;28;20036;-77
2022/04/12 02:00:22;;;;;;;6.35;4.65;;;12.50;59.40;;;;;;5016740;28;20026;-77
2022/04/12 02:02:48;;;;;;;7.82;4.93;;;12.50;59.30;;;;;;5016207;28;20033;-77
2022/04/12 02:05:14;;;;;;;6.93;4.60;;;12.50;59.10;;;;;;5016612;28;20480;-77
2022/04/12 02:07:43;;;;;;;6.43;4.65;;;12.50;59.10;;;;;;5016556;28;20029;-77
2022/04/12 02:10:09;;;;;;;6.75;4.78;;;12.50;59.20;;;;;;5016440;28;20033;-77
2022/04/12 02:12:35;;;;;;;7.65;4.95;;;12.50;59.10;;;;;;5016066;28;20034;-77
2022/04/12 02:15:02;;;;;;;6.20;4.20;;;12.50;58.90;;;;;;5016150;28;20029;-77
2022/04/12 02:17:28;;;;;;;6.68;4.50;;;12.50;59.20;;;;;;5016400;28;20033;-77
2022/04/12 02:19:54;;;;;;;5.95;4.30;;;12.50;58.90;;;;;;5016102;28;20034;-77
2022/04/12 02:22:19;;;;;;;9.02;4.40;;;12.50;59.40;;;;;;5015912;28;20045;-77
2022/04/12 02:24:45;;;;;;;6.35;4.35;;;12.50;59.20;;;;;;5016035;28;20030;-77
2022/04/12 02:27:11;;;;;;;7.95;4.68;;;12.50;59.20;;;;;;5015909;28;20033;-77
2022/04/12 02:29:37;;;;;;;6.13;4.60;;;12.50;59.30;;;;;;5015955;28;20460;-78
2022/04/12 02:32:03;;;;;;;6.93;4.30;;;12.50;59.30;;;;;;5016053;28;20116;-78
2022/04/12 02:34:28;;;;;;;7.25;4.88;;;12.40;59.10;;;;;;5016391;28;20058;-78
2022/04/12 02:36:54;;;;;;;5.80;4.25;;;12.40;59.00;;;;;;5016622;28;20026;-78
2022/04/12 02:39:20;;;;;;;7.75;4.40;;;12.30;59.30;;;;;;5015762;28;20026;-77
2022/04/12 02:41:45;;;;;;;7.97;4.65;;;12.30;59.80;;;;;;5015887;28;20022;-77
2022/04/12 02:44:11;;;;;;;7.60;4.13;;;12.30;59.20;;;;;;5015514;28;20030;-78
2022/04/12 02:46:36;;;;;;;7.75;4.13;;;12.30;59.20;;;;;;5015712;28;20026;-78
2022/04/12 02:49:02;;;;;;;6.85;4.30;;;12.30;59.30;;;;;;5015645;28;20026;-78
2022/04/12 02:51:28;;;;;;;7.53;3.85;;;12.30;59.20;;;;;;5015394;28;20036;-78
2022/04/12 02:53:53;;;;;;;6.35;4.07;;;12.30;59.20;;;;;;5015474;28;20113;-78
2022/04/12 02:56:19;;;;;;;8.23;4.90;;;12.30;59.10;;;;;;5015591;28;20050;-78
2022/04/12 02:58:44;;;;;;;7.00;4.20;;;12.30;59.20;;;;;;5015389;28;20347;-78
2022/04/12 03:01:10;;;;;;;6.45;4.72;;;12.20;59.30;;;;;;5015661;28;20022;-78
2022/04/12 03:03:35;;;;;;;7.07;3.88;;;12.20;59.40;;;;;;5015465;28;20038;-78
2022/04/12 03:06:01;;;;;;;5.35;3.78;;;12.20;59.90;;;;;;5015229;28;20373;-78
2022/04/12 03:08:26;;;;;;;5.30;3.25;;;12.10;59.70;;;;;;5015419;28;20104;-78
2022/04/12 03:10:52;;;;;;;6.07;3.88;;;12.10;59.80;;;;;;5015141;28;20053;-77
2022/04/12 03:13:18;;;;;;;6.35;4.05;;;12.10;59.70;;;;;;5014665;28;20042;-78
2022/04/12 03:15:43;;;;;;;6.38;3.95;;;12.10;59.80;;;;;;5015303;28;20076;-77
2022/04/12 03:18:10;;;;;;;6.93;3.78;;;12.10;60.30;;;;;;5014990;28;20026;-78
2022/04/12 03:20:36;;;;;;;8.25;3.90;;;12.10;59.90;;;;;;5015226;28;20036;-78
2022/04/12 03:23:01;;;;;;;5.55;3.85;;;12.20;60.30;;;;;;5014819;28;20112;-78
2022/04/12 03:25:27;;;;;;;6.38;3.72;;;12.20;60.30;;;;;;5014853;28;20528;-78
2022/04/12 03:27:52;;;;;;;5.03;3.70;;;12.20;60.30;;;;;;5014758;28;20377;-78
2022/04/12 03:30:19;;;;;;;5.95;3.83;;;12.10;60.10;;;;;;5015064;28;20113;-78
2022/04/12 03:32:44;;;;;;;6.47;3.45;;;12.20;60.60;;;;;;5014785;28;20071;-78
2022/04/12 03:35:10;;;;;;;8.73;4.90;;;12.10;60.20;;;;;;5014540;28;20105;-78
2022/04/12 03:37:35;;;;;;;6.35;3.67;;;12.10;60.10;;;;;;5014935;28;20416;-77
2022/04/12 03:40:02;;;;;;;5.55;3.90;;;12.00;60.90;;;;;;5015030;28;20048;-77
2022/04/12 03:42:28;;;;;;;7.35;4.05;;;12.00;61.10;;;;;;5014291;28;20385;-78
2022/04/12 03:44:53;;;;;;;8.38;4.78;;;12.00;60.60;;;;;;5014746;28;20026;-78
2022/04/12 03:47:19;;;;;;;5.30;4.00;;;11.90;60.60;;;;;;5014241;28;20022;-78
2022/04/12 03:49:45;;;;;;;5.97;4.13;;;11.90;60.70;;;;;;5014549;28;20021;-77
2022/04/12 03:52:10;;;;;;;7.13;4.40;;;11.80;60.80;;;;;;5014402;28;20018;-78
2022/04/12 03:54:36;;;;;;;5.82;3.53;;;11.80;60.90;;;;;;5014586;28;20076;-78
2022/04/12 03:57:03;;;;;;;6.03;4.10;;;11.80;61.20;;;;;;5014608;28;20030;-77
2022/04/12 03:59:28;;;;;;;5.90;3.83;;;11.80;61.00;;;;;;5014119;28;20026;-76
2022/04/12 04:01:54;;;;;;;6.03;4.13;;;11.80;61.10;;;;;;5014462;28;20032;-78
2022/04/12 04:04:20;;;;;;;8.55;3.75;;;11.80;61.00;;;;;;5014120;28;20477;-77
2022/04/12 04:06:46;;;;;;;5.47;3.53;;;11.80;61.30;;;;;;5013893;28;20042;-77
2022/04/12 04:09:12;;;;;;;6.13;3.80;;;11.80;61.20;;;;;;5014252;28;20113;-77
2022/04/12 04:11:40;;;;;;;6.28;4.03;;;11.70;61.60;;;;;;5014078;28;20048;-77
2022/04/12 04:14:10;;;;;;;5.50;3.95;;;11.70;61.50;;;;;;5013864;28;20045;-77
2022/04/12 04:16:37;;;;;;;5.78;4.00;;;11.80;61.90;;;;;;5014152;28;20080;-76
2022/04/12 04:19:02;;;;;;;7.00;3.72;;;11.70;61.70;;;;;;5014140;28;20029;-76
2022/04/12 04:21:28;;;;;;;5.90;4.13;;;11.70;61.90;;;;;;5013986;28;20484;-76
2022/04/12 04:23:53;;;;;;;6.40;3.33;;;11.70;61.60;;;;;;5013851;28;20424;-77
2022/04/12 04:26:19;;;;;;;7.15;3.92;;;11.70;62.80;;;;;;5013789;28;20021;-76
2022/04/12 04:28:45;;;;;;;6.40;4.60;;;11.60;62.90;;;;;;5014108;28;20037;-77
2022/04/12 04:31:11;;;;;;;4.97;3.45;;;11.50;62.30;;;;;;5013928;28;20018;-77
2022/04/12 04:33:37;;;;;;;5.68;3.78;;;11.50;62.40;;;;;;5013544;28;20030;-77
2022/04/12 04:36:03;;;;;;;5.32;3.55;;;11.50;62.40;;;;;;5013932;28;20129;-76
2022/04/12 04:38:28;;;;;;;7.20;4.10;;;11.40;62.20;;;;;;5014123;28;20029;-76
2022/04/12 04:40:54;;;;;;;6.65;3.83;;;11.40;62.70;;;;;;5013710;28;20076;-75
2022/04/12 04:43:19;;;;;;;8.45;5.43;;;11.40;62.90;;;;;;5013446;28;20037;-77
2022/04/12 04:45:45;;;;;;;5.47;3.60;;;11.40;62.90;;;;;;5013611;28;20110;-75
2022/04/12 04:48:11;;;;;;;6.07;4.10;;;11.40;62.70;;;;;;5013407;28;20018;-75
2022/04/12 04:50:38;;;;;;;6.55;3.75;;;11.40;63.10;;;;;;5013645;28;20030;-75
2022/04/12 04:53:06;;;;;;;6.10;3.90;;;11.40;63.50;;;;;;5013131;28;20026;-77
2022/04/12 04:55:35;;;;;;;5.28;3.78;;;11.40;62.90;;;;;;5013378;28;20026;-77
2022/04/12 04:58:01;;;;;;;8.50;4.35;;;11.40;63.10;;;;;;5013395;28;20477;-77
2022/04/12 05:00:29;;;;;;;6.97;4.40;;;11.40;63.20;;;;;;5013235;28;20022;-76
2022/04/12 05:02:56;;;;;;;7.45;4.07;;;11.40;63.60;;;;;;5013321;28;20385;-76
2022/04/12 05:05:22;;;;;;;8.05;4.28;;;11.40;63.20;;;;;;5013595;28;20022;-77
2022/04/12 05:07:51;;;;;;;8.73;4.13;;;11.40;63.60;;;;;;5013303;28;20037;-77
2022/04/12 05:10:25;;;;;;;6.05;3.85;;;11.40;63.80;;;;;;5012689;28;20026;-77
2022/04/12 05:12:50;;;;;;;7.85;4.20;;;11.40;63.70;;;;;;5012982;28;20115;-77
2022/04/12 05:15:16;;;;;;;4.82;3.88;;;11.50;63.80;;;;;;5013060;28;20465;-77
2022/04/12 05:17:51;;;;;;;5.80;4.18;;;11.40;63.90;;;;;;5013347;28;20053;-77
2022/04/12 05:20:17;;;;;;;9.98;4.60;;;11.40;63.60;;;;;;5013060;28;20430;-78
2022/04/12 05:22:43;;;;;;;6.53;4.13;;;11.30;63.50;;;;;;5013130;28;20030;-77
2022/04/12 05:25:08;;;;;;;9.75;4.53;;;11.40;64.70;;;;;;5013445;28;20028;-77
2022/04/12 05:27:35;;;;;;;7.38;4.57;;;11.30;64.00;;;;;;5013027;28;20034;-76
2022/04/12 05:30:02;;;;;;;8.02;4.53;;;11.30;64.00;;;;;;5012843;28;20022;-77
2022/04/12 05:32:28;;;;;;;9.10;4.45;;;11.30;64.60;;;;;;5012848;28;20030;-76
2022/04/12 05:34:54;;;;;;;8.75;4.18;;;11.40;64.80;;;;;;5013101;28;20445;-76
2022/04/12 05:37:20;;;;;;;8.55;4.50;;;11.40;65.10;;;;;;5012502;28;20030;-77
2022/04/12 05:39:46;;;;;;;7.40;4.75;;;11.50;64.70;;;;;;5013137;28;20030;-76
2022/04/12 05:42:11;;;;;;;6.57;4.45;;;11.50;65.00;;;;;;5013585;28;20600;-76
2022/04/12 05:44:37;;;;;;;7.75;3.70;;;11.60;65.10;;;;;;5012880;28;20036;-77
2022/04/12 05:47:04;;;;;;;8.43;4.07;;;11.60;65.20;;;;;;5012749;28;20030;-77
2022/04/12 05:49:31;;;;;;;8.20;5.07;;;11.70;64.60;;;;;;5012506;28;20519;-76
2022/04/12 05:51:56;;;;;;;10.38;3.70;;;11.70;64.30;;;;;;5013069;28;20030;-77
2022/04/12 05:54:23;;;;;;;8.50;4.40;;;11.80;64.50;;;;;;5012969;28;20037;-76
2022/04/12 05:56:48;;;;;;;6.00;3.63;;;11.80;64.20;;;;;;5012923;28;20101;-76
2022/04/12 05:59:14;;;;;;;8.38;4.85;;;11.90;64.00;;;;;;5013350;28;20100;-77
2022/04/12 06:01:40;;;;;;;9.93;5.32;;;11.90;63.50;;;;;;5015992;28;20029;-86
2022/04/12 06:04:06;;;;;;;7.93;5.13;;;11.90;63.20;;;;;;5016314;28;20030;-76
2022/04/12 06:06:32;;;;;;;7.22;4.63;;;11.90;63.40;;;;;;5015930;28;20461;-76
2022/04/12 06:08:59;;;;;;;10.77;4.78;;;11.90;63.30;;;;;;5015971;28;20058;-76
2022/04/12 06:11:25;;;;;;;8.75;4.38;;;11.90;63.40;;;;;;5015805;28;20028;-76
2022/04/12 06:13:51;;;;;;;6.72;4.70;;;11.90;63.70;;;;;;5015709;28;20054;-76
2022/04/12 06:16:17;;;;;;;7.32;4.85;;;12.00;63.20;;;;;;5016103;28;20022;-76
2022/04/12 06:18:42;;;;;;;14.35;6.80;;;12.00;63.20;;;;;;5015809;28;20022;-76
2022/04/12 06:21:08;;;;;;;8.02;5.03;;;12.00;63.00;;;;;;5015926;28;20058;-76
2022/04/12 06:23:34;;;;;;;8.25;4.97;;;11.90;63.00;;;;;;5015570;28;20030;-77
2022/04/12 06:25:59;;;;;;;9.57;4.70;;;11.90;63.30;;;;;;5015847;28;20026;-76
2022/04/12 06:28:25;;;;;;;11.15;5.38;;;11.80;63.80;;;;;;5015958;28;20022;-78
2022/04/12 06:30:52;;;;;;;5.82;4.65;;;11.90;64.00;;;;;;5015294;28;20022;-80
2022/04/12 06:33:18;;;;;;;9.80;5.15;;;11.90;63.70;;;;;;5015447;28;20049;-78
2022/04/12 06:35:43;;;;;;;9.30;4.90;;;11.90;63.60;;;;;;5015339;28;20018;-78
2022/04/12 06:38:10;;;;;;;12.10;5.80;;;12.00;63.60;;;;;;5015439;28;20022;-78
2022/04/12 06:40:35;;;;;;;7.93;4.97;;;11.90;64.10;;;;;;5015065;28;20029;-78
2022/04/12 06:43:01;;;;;;;7.68;5.00;;;11.90;63.70;;;;;;5014946;28;20723;-78
2022/04/12 06:45:27;;;;;;;11.93;5.53;;;11.90;63.70;;;;;;5015005;28;20030;-78
2022/04/12 06:47:54;;;;;;;7.28;4.97;;;11.90;64.00;;;;;;5014840;28;20485;-78
2022/04/12 06:50:20;;;;;;;9.40;5.55;;;12.00;64.40;;;;;;5014584;28;20030;-79
2022/04/12 06:52:46;;;;;;;12.30;5.10;;;12.10;63.90;;;;;;5014662;28;20545;-79
2022/04/12 06:55:11;;;;;;;11.05;5.95;;;12.20;63.90;;;;;;5014434;28;20072;-78
2022/04/12 06:57:37;;;;;;;8.52;6.25;;;12.30;64.70;;;;;;5014774;28;20037;-78
2022/04/12 07:00:05;;;;;;;8.90;5.45;;;12.30;64.50;;;;;;5014920;28;20022;-79
2022/04/12 07:02:31;;;;;;;10.30;5.30;;;12.30;64.80;;;;;;5014999;28;20393;-79
2022/04/12 07:04:57;;;;;;;9.98;6.13;;;12.40;63.70;;;;;;5015062;28;20041;-79
2022/04/12 07:07:22;;;;;;;9.05;5.45;;;12.40;63.40;;;;;;5014697;28;20029;-79
2022/04/12 07:09:48;;;;;;;7.53;5.13;;;12.30;63.20;;;;;;5014993;28;20033;-78
2022/04/12 07:12:13;;;;;;;8.95;6.03;;;12.30;63.40;;;;;;5013726;28;20025;-77
2022/04/12 07:14:39;;;;;;;11.27;6.20;;;12.30;63.30;;;;;;5015071;28;20110;-78
2022/04/12 07:17:05;;;;;;;11.75;5.05;;;12.30;63.40;;;;;;5014852;28;20416;-78
2022/04/12 07:19:31;;;;;;;9.15;5.40;;;12.40;63.70;;;;;;5014341;28;20042;-79
2022/04/12 07:21:57;;;;;;;8.75;6.00;;;12.50;63.30;;;;;;5014730;28;20022;-78
2022/04/12 07:24:22;;;;;;;11.43;5.88;;;12.60;63.20;;;;;;5014429;28;20035;-78
2022/04/12 07:26:48;;;;;;;10.70;6.03;;;12.70;63.10;;;;;;5014689;28;20069;-77
2022/04/12 07:29:13;;;;;;;9.35;5.57;;;12.80;63.60;;;;;;5014713;28;20069;-78
2022/04/12 07:31:39;;;;;;;9.15;6.15;;;12.90;63.30;;;;;;5014883;28;20126;-77
2022/04/12 07:34:05;;;;;;;11.13;6.32;;;13.00;63.20;;;;;;5014133;28;20334;-78
2022/04/12 07:36:30;;;;;;;10.00;5.65;;;13.10;62.80;;;;;;5014426;28;20103;-77
2022/04/12 07:38:56;;;;;;;10.43;6.00;;;13.20;62.90;;;;;;5013965;28;20030;-76
2022/04/12 07:41:22;;;;;;;9.38;5.53;;;13.30;62.80;;;;;;5014035;28;20061;-75
2022/04/12 07:43:49;;;;;;;11.18;5.72;;;13.30;63.20;;;;;;5014120;28;20041;-76
2022/04/12 07:46:15;;;;;;;11.32;6.22;;;13.40;63.00;;;;;;5014086;28;20022;-76
2022/04/12 07:48:42;;;;;;;9.75;5.75;;;13.60;64.00;;;;;;5014448;28;20030;-77
2022/04/12 07:51:08;;;;;;;10.20;6.22;;;13.70;63.30;;;;;;5013797;28;20030;-76
2022/04/12 07:53:34;;;;;;;8.95;6.13;;;13.80;64.00;;;;;;5014087;28;20075;-76
2022/04/12 07:55:59;;;;;;;12.65;6.30;;;13.80;63.30;;;;;;5014151;28;20104;-77
2022/04/12 07:58:25;;;;;;;10.52;6.72;;;13.90;63.60;;;;;;5013908;28;20429;-75
2022/04/12 08:00:51;;;;;;;13.40;6.45;;;14.00;64.40;;;;;;5013927;28;20397;-79
2022/04/12 08:03:20;;;;;;;7.70;6.10;;;14.00;64.50;;;;;;5013854;28;20026;-78
2022/04/12 08:05:47;;;;;;;8.75;6.53;;;14.20;64.00;;;;;;5014184;28;20377;-78
2022/04/12 08:08:12;;;;;;;10.27;6.28;;;14.30;64.50;;;;;;5014015;28;20022;-78
2022/04/12 08:10:38;;;;;;;11.05;5.93;;;14.50;64.00;;;;;;5014011;28;20076;-78
2022/04/12 08:13:03;;;;;;;7.40;5.72;;;14.70;63.60;;;;;;5013230;28;20053;-77
2022/04/12 08:15:29;;;;;;;11.02;5.90;;;14.80;62.80;;;;;;5013575;28;20072;-77
2022/04/12 08:17:55;;;;;;;16.55;6.18;;;15.00;62.70;;;;;;5013783;28;20026;-77
2022/04/12 08:20:21;;;;;;;13.27;6.28;;;15.00;62.80;;;;;;5013581;28;20026;-79
2022/04/12 08:22:47;;;;;;;10.38;5.75;;;15.20;62.20;;;;;;5013110;28;20037;-78
2022/04/12 08:25:13;;;;;;;9.10;5.70;;;15.30;60.60;;;;;;5013316;28;20022;-78
2022/04/12 08:27:38;;;;;;;8.55;5.20;;;15.40;60.00;;;;;;5013581;28;20022;-78
2022/04/12 08:30:07;;;;;;;9.10;5.18;;;15.40;60.60;;;;;;5013717;28;20491;-78
2022/04/12 08:32:34;;;;;;;8.13;4.80;;;15.50;60.50;;;;;;5012228;28;20056;-78
2022/04/12 08:34:59;;;;;;;8.73;5.38;;;15.70;60.10;;;;;;5013360;28;20084;-78
2022/04/12 08:37:25;;;;;;;8.57;5.30;;;15.70;60.40;;;;;;5013194;28;20021;-78
2022/04/12 08:39:51;;;;;;;8.57;4.72;;;15.70;61.40;;;;;;5013429;28;20153;-78
2022/04/12 08:42:17;;;;;;;9.70;5.15;;;15.80;61.40;;;;;;5013068;28;20431;-79
2022/04/12 08:44:45;;;;;;;9.75;5.22;;;16.00;61.00;;;;;;5012867;28;20117;-78
2022/04/12 08:47:14;;;;;;;10.13;6.10;;;16.00;60.10;;;;;;5013144;28;20026;-78
2022/04/12 08:49:40;;;;;;;10.00;5.80;;;16.20;60.00;;;;;;5012689;28;20034;-77
2022/04/12 08:52:11;;;;;;;12.00;5.55;;;16.10;61.00;;;;;;5013093;28;20025;-78
2022/04/12 08:54:44;;;;;;;7.05;4.93;;;16.20;62.50;;;;;;5013361;28;20025;-78
2022/04/12 08:57:12;;;;;;;9.73;5.43;;;16.30;61.50;;;;;;5013412;28;20101;-78
2022/04/12 08:59:39;;;;;;;9.73;5.45;;;16.40;60.20;;;;;;5013142;28;20504;-78
2022/04/12 09:02:09;;;;;;;9.27;6.05;;;16.50;60.50;;;;;;5013149;28;20038;-78
2022/04/12 09:04:35;;;;;;;12.02;6.43;;;16.60;60.80;;;;;;5013224;28;20025;-76
2022/04/12 09:07:01;;;;;;;9.48;5.50;;;16.70;59.80;;;;;;5013450;28;20389;-77
2022/04/12 09:09:29;;;;;;;10.63;5.72;;;16.70;61.10;;;;;;5013196;28;20030;-78
2022/04/12 09:12:06;;;;;;;9.73;5.15;;;16.80;60.70;;;;;;5012984;28;20050;-77
2022/04/12 09:14:56;;;;;;;8.73;5.53;;;16.90;60.80;;;;;;5013041;28;20030;-77
2022/04/12 09:17:30;;;;;;;10.68;5.82;;;17.00;60.20;;;;;;5012545;28;20018;-77
2022/04/12 09:19:57;;;;;;;8.52;5.72;;;17.00;60.00;;;;;;5013256;28;20056;-78
2022/04/12 09:22:24;;;;;;;9.32;6.00;;;17.00;59.60;;;;;;5012900;28;20524;-77
2022/04/12 09:24:52;;;;;;;11.18;6.20;;;17.10;60.60;;;;;;5012773;28;20489;-78
2022/04/12 09:27:20;;;;;;;10.55;6.00;;;17.20;61.40;;;;;;5012735;28;20076;-77
2022/04/12 09:29:53;;;;;;;9.35;5.70;;;17.20;60.80;;;;;;5013161;28;20026;-78
2022/04/12 09:32:19;;;;;;;;;;;17.30;59.60;;;;;;5013176;28;20045;-77
2022/04/12 09:34:45;;;;;;;9.57;5.18;;;17.30;59.80;;;;;;5015007;28;20321;-77
2022/04/12 09:37:27;;;;;;;9.90;5.80;;;17.40;59.80;;;;;;5016871;28;20168;-77
2022/04/12 09:40:13;;;;;;;10.15;5.97;;;17.60;60.00;;;;;;5016756;28;20405;-77
2022/04/12 09:42:42;;;;;;;8.82;5.15;;;17.80;59.30;;;;;;5016466;28;20026;-78
2022/04/12 09:45:11;;;;;;;6.95;4.95;;;17.90;58.50;;;;;;5016624;28;20053;-77
2022/04/12 09:47:38;;;;;;;7.18;5.35;;;18.00;58.50;;;;;;5016925;28;20033;-77
2022/04/12 09:50:05;;;;;;;7.43;5.38;;;18.10;58.80;;;;;;4998694;28;20022;-78
2022/04/12 09:52:31;;;;;;;7.85;4.95;;;18.20;59.60;;;;;;5016372;28;20026;-78
2022/04/12 09:54:57;;;;;;;7.88;5.20;;;18.40;59.50;;;;;;5015784;28;20588;-78
2022/04/12 09:57:24;;;;;;;10.65;5.10;;;18.60;59.40;;;;;;5016206;28;20129;-78
2022/04/12 09:59:54;;;;;;;8.85;5.53;;;18.70;59.80;;;;;;5016127;28;20036;-77
2022/04/12 10:02:20;;;;;;;10.05;5.32;;;18.80;58.80;;;;;;5015840;28;20045;-78
2022/04/12 10:04:47;;;;;;;7.82;5.35;;;18.80;57.40;;;;;;5015719;28;20057;-78
2022/04/12 10:07:17;;;;;;;10.25;5.65;;;18.90;57.20;;;;;;5016373;28;20425;-78
2022/04/12 10:09:43;;;;;;;11.27;6.15;;;18.90;57.10;;;;;;5016050;28;20026;-77
2022/04/12 10:12:10;;;;;;;8.98;5.55;;;18.90;57.20;;;;;;5015797;28;20021;-77
2022/04/12 10:14:36;;;;;;;12.18;5.03;;;18.90;57.00;;;;;;5016167;28;20495;-78
2022/04/12 10:17:03;;;;;;;8.43;5.10;;;19.00;57.90;;;;;;5016040;28;20112;-78
2022/04/12 10:19:31;;;;;;;7.50;4.43;;;19.10;58.30;;;;;;5015658;28;20033;-77
2022/04/12 10:21:56;;;;;;;8.18;4.47;;;19.20;57.00;;;;;;5016178;28;20034;-78
2022/04/12 10:24:23;;;;;;;8.18;5.50;;;19.30;57.80;;;;;;5015744;28;20448;-78
2022/04/12 10:26:50;;;;;;;12.25;5.03;;;19.30;59.20;;;;;;5015792;28;20109;-78
2022/04/12 10:29:16;;;;;;;9.27;5.20;;;19.30;58.00;;;;;;5015847;28;20057;-78
2022/04/12 10:31:59;;;;;;;10.25;5.53;;;19.40;56.80;;;;;;5016264;28;20026;-78
2022/04/12 10:34:25;;;;;;;8.38;5.10;;;19.60;58.50;;;;;;5015795;28;20476;-78
2022/04/12 10:36:56;;;;;;;6.53;4.43;;;19.70;57.30;;;;;;5015883;28;20046;-78
2022/04/12 10:39:33;;;;;;;9.30;5.32;;;19.80;56.80;;;;;;5015839;28;20038;-78
2022/04/12 10:42:03;;;;;;;11.50;5.07;;;20.00;56.70;;;;;;5030445;28;20388;-77
2022/04/12 10:44:39;;;;;;;8.13;4.57;;;20.00;55.30;;;;;;5034879;28;20037;-78
2022/04/12 10:47:05;;;;;;;8.57;4.97;;;20.00;55.50;;;;;;5035985;28;20033;-78
2022/04/12 10:49:36;;;;;;;10.80;4.55;;;20.10;55.90;;;;;;5035093;28;20476;-75
2022/04/12 10:52:02;;;;;;;8.05;3.92;;;20.20;55.40;;;;;;5033301;28;20162;-76
2022/04/12 10:54:33;;;;;;;8.55;4.20;;;20.20;54.70;;;;;;5046236;28;20029;-76
2022/04/12 10:57:24;;;;;;;5.97;3.88;;;20.30;55.40;;;;;;5030478;28;20097;-76
2022/04/12 10:59:52;;;;;;;7.40;3.85;;;20.40;55.00;;;;;;5032750;28;20144;-77
2022/04/12 11:02:18;;;;;;;5.35;3.17;;;20.40;53.40;;;;;;5029736;28;20112;-76
2022/04/12 11:04:44;;;;;;;7.07;3.45;;;20.60;53.20;;;;;;5032659;28;20116;-74
2022/04/12 11:07:26;;;;;;;7.22;3.60;;;20.70;53.60;;;;;;5033023;28;20049;-76
2022/04/12 11:10:08;;;;;;;7.70;4.07;;;20.70;52.80;;;;;;5033490;28;20075;-76
2022/04/12 11:12:43;;;;;;;5.75;3.30;;;20.80;53.00;;;;;;5031941;28;20048;-77
2022/04/12 11:15:27;;;;;;;5.90;3.55;;;20.90;53.60;;;;;;5032347;28;20033;-79
2022/04/12 11:18:13;;;;;;;8.00;3.40;;;21.10;52.50;;;;;;5031040;28;20217;-76
2022/04/12 11:20:46;;;;;;;6.20;3.72;;;21.20;52.30;;;;;;5032249;28;20033;-75
2022/04/12 11:23:13;;;;;;;8.27;3.47;;;21.10;51.80;;;;;;5031170;28;20512;-75
2022/04/12 11:25:50;;;;;;;10.15;3.63;;;20.90;52.10;;;;;;5033052;28;20029;-76
2022/04/12 11:28:22;;;;;;;6.78;3.78;;;20.80;52.70;;;;;;5031678;28;20025;-75
2022/04/12 11:30:58;;;;;;;7.47;3.97;;;20.60;53.20;;;;;;5032386;28;20055;-73
2022/04/12 11:33:28;;;;;;;7.55;3.65;;;20.50;53.60;;;;;;5031981;28;20500;-75
2022/04/12 11:35:55;;;;;;;7.38;4.00;;;20.40;53.70;;;;;;5032582;28;20029;-75
2022/04/12 11:38:22;;;;;;;9.07;3.83;;;20.30;54.00;;;;;;5032450;28;20032;-76
2022/04/12 11:40:49;;;;;;;7.78;4.07;;;20.30;54.00;;;;;;5032416;28;20476;-78
2022/04/12 11:43:21;;;;;;;5.68;3.50;;;20.40;54.90;;;;;;5032234;28;20540;-79
2022/04/12 11:45:50;;;;;;;6.90;3.40;;;20.60;55.00;;;;;;5031042;28;20026;-79
2022/04/12 11:48:16;;;;;;;10.43;3.35;;;20.70;53.80;;;;;;5031002;28;20374;-78
2022/04/12 11:50:52;;;;;;;6.18;3.45;;;20.80;53.80;;;;;;5030148;28;20067;-79
2022/04/12 11:53:22;;;;;;;5.75;3.30;;;20.80;53.80;;;;;;5031900;28;20034;-79
2022/04/12 11:55:48;;;;;;;8.68;3.67;;;21.00;53.60;;;;;;5030870;28;20516;-78
2022/04/12 11:58:15;;;;;;;7.57;4.05;;;21.10;53.80;;;;;;5031548;28;20033;-78
2022/04/12 12:00:41;;;;;;;9.02;3.97;;;21.20;52.90;;;;;;5034118;28;20036;-78
2022/04/12 12:03:15;;;;;;;9.73;4.22;;;21.30;53.30;;;;;;5043043;28;20039;-78
2022/04/12 12:05:40;;;;;;;8.02;3.95;;;21.40;52.80;;;;;;5053819;28;20025;-77
2022/04/12 12:08:06;;;;;;;8.85;3.63;;;21.50;54.10;;;;;;5053958;28;20028;-78
2022/04/12 12:10:32;;;;;;;7.60;3.70;;;21.60;52.50;;;;;;5053341;28;20096;-77
2022/04/12 12:12:57;;;;;;;7.93;3.88;;;21.70;52.10;;;;;;5053212;28;20526;-78
2022/04/12 12:15:28;;;;;;;4.90;3.30;;;21.70;51.60;;;;;;5042333;28;20404;-78
2022/04/12 12:17:55;;;;;;;9.18;4.20;;;21.80;51.70;;;;;;5033260;28;20025;-79
2022/04/12 12:20:29;;;;;;;7.35;4.38;;;21.80;51.50;;;;;;5031800;28;20029;-78
2022/04/12 12:23:03;;;;;;;7.82;3.72;;;21.80;51.30;;;;;;5032680;28;20159;-77
2022/04/12 12:25:42;;;;;;;7.40;3.33;;;21.80;52.10;;;;;;5032627;28;20393;-77
2022/04/12 12:28:19;;;;;;;8.80;3.83;;;21.70;52.10;;;;;;5032990;28;20030;-78
2022/04/12 12:30:46;;;;;;;11.07;3.53;;;21.50;51.00;;;;;;5032454;28;20159;-77
2022/04/12 12:33:13;;;;;;;8.45;4.20;;;21.30;52.10;;;;;;5031424;28;20538;-77
2022/04/12 12:35:41;;;;;;;8.25;3.70;;;21.30;52.80;;;;;;5031982;28;20049;-76
2022/04/12 12:38:10;;;;;;;9.90;3.97;;;21.20;52.80;;;;;;5031424;28;20025;-76
2022/04/12 12:40:37;;;;;;;9.23;3.78;;;21.20;52.70;;;;;;5031528;28;20040;-77
2022/04/12 12:43:05;;;;;;;9.60;4.47;;;21.10;53.50;;;;;;5031391;28;20099;-77
2022/04/12 12:45:32;;;;;;;8.57;4.65;;;21.10;54.00;;;;;;5031590;28;20473;-76
2022/04/12 12:47:58;;;;;;;12.18;5.32;;;21.20;53.30;;;;;;5031182;28;20029;-76